Time;durP1;ratioP1;P1;durP2;ratioP2;P2;SDS_P1;SDS_P2;PMS_P1;PMS_P2;Temp;Humidity;BMP_temperature;BMP_pressure;BME280_temperature;BME280_humidity;BME280_pressure;Samples;Min_cycle;Max_cycle;Signal;HPM_P1;HPM_P2
2022/01/29 00:00:47;;;;;;;2.53;2.30;;;;;;;5.26;47.72;94987.34;5025462;28;20447;-73
2022/01/29 00:03:13;;;;;;;4.60;2.90;;;;;;;5.32;47.15;94985.94;5011134;28;20517;-74
2022/01/29 00:05:39;;;;;;;4.57;3.23;;;;;;;5.20;48.76;94977.59;5026046;28;20254;-74
2022/01/29 00:08:05;;;;;;;3.50;3.20;;;;;;;4.98;48.50;94983.28;5025700;28;20192;-74
2022/01/29 00:10:31;;;;;;;5.33;3.27;;;;;;;5.04;48.85;94982.66;5011001;28;20192;-74
2022/01/29 00:12:57;;;;;;;3.90;3.60;;;;;;;5.20;48.57;94989.75;5008147;28;20428;-73
2022/01/29 00:15:23;;;;;;;3.80;3.37;;;;;;;4.97;48.95;94997.19;5025873;28;20791;-73
2022/01/29 00:17:48;;;;;;;3.83;3.37;;;;;;;5.38;48.17;94993.09;5024370;28;20456;-73
2022/01/29 00:20:14;;;;;;;3.40;3.03;;;;;;;5.36;48.49;94986.44;5045646;28;20199;-74
2022/01/29 00:22:40;;;;;;;2.57;2.30;;;;;;;4.79;49.51;94998.03;5045660;28;20653;-74
2022/01/29 00:25:07;;;;;;;4.83;3.33;;;;;;;4.81;49.95;94998.69;5045753;28;20420;-74
2022/01/29 00:27:35;;;;;;;6.63;3.77;;;;;;;5.02;49.48;95000.97;5033396;28;20481;-74
2022/01/29 00:30:08;;;;;;;6.83;4.17;;;;;;;5.22;48.79;94995.59;5034775;28;20419;-73
2022/01/29 00:32:34;;;;;;;5.10;3.13;;;;;;;5.46;48.36;94992.31;5026061;28;20860;-73
2022/01/29 00:35:00;;;;;;;3.60;3.30;;;;;;;5.62;48.25;94996.81;5025516;28;20455;-73
2022/01/29 00:37:25;;;;;;;2.80;2.40;;;;;;;4.93;50.01;94990.69;5041130;28;20465;-73
2022/01/29 00:39:50;;;;;;;5.50;3.33;;;;;;;5.24;49.17;94993.66;5045496;28;20179;-74
2022/01/29 00:42:16;;;;;;;6.23;3.60;;;;;;;4.87;50.58;94998.09;5045629;28;20259;-73
2022/01/29 00:44:42;;;;;;;6.80;3.57;;;;;;;5.15;50.26;94995.38;5034194;28;20208;-74
2022/01/29 00:47:08;;;;;;;3.33;3.03;;;;;;;5.06;50.55;94991.09;5045078;28;20207;-72
2022/01/29 00:49:34;;;;;;;5.70;3.23;;;;;;;4.80;51.33;94983.28;5045183;28;20203;-72
2022/01/29 00:52:00;;;;;;;5.70;4.37;;;;;;;5.11;50.84;94983.69;5044942;28;20183;-73
2022/01/29 00:54:25;;;;;;;3.57;3.27;;;;;;;4.61;52.54;94968.72;5024110;28;20478;-74
2022/01/29 00:56:51;;;;;;;6.27;4.37;;;;;;;4.72;52.65;94984.03;5005725;28;20184;-73
2022/01/29 00:59:16;;;;;;;5.93;4.40;;;;;;;5.05;51.05;94984.31;4988294;28;20184;-72
2022/01/29 01:01:42;;;;;;;6.77;4.30;;;;;;;5.11;51.83;94991.47;5017537;28;20184;-74
2022/01/29 01:04:08;;;;;;;8.77;5.17;;;;;;;4.98;52.11;94988.47;5031084;28;20195;-73
2022/01/29 01:06:34;;;;;;;4.70;4.30;;;;;;;4.83;52.33;94983.81;5044852;28;20414;-73
2022/01/29 01:08:59;;;;;;;4.53;3.40;;;;;;;4.60;53.04;94987.84;5044591;28;20438;-73
2022/01/29 01:11:25;;;;;;;7.33;4.80;;;;;;;4.73;52.66;94987.47;5041387;28;20368;-73
2022/01/29 01:13:51;;;;;;;4.30;3.90;;;;;;;4.93;52.08;94988.09;4990839;28;20193;-74
2022/01/29 01:16:16;;;;;;;5.23;4.73;;;;;;;5.19;51.77;94978.53;5005596;28;20205;-73
2022/01/29 01:18:41;;;;;;;2.57;2.37;;;;;;;4.57;53.05;94976.00;5005667;28;20184;-73
2022/01/29 01:21:07;;;;;;;5.43;4.77;;;;;;;4.80;52.61;94989.31;5013732;28;20186;-73
2022/01/29 01:23:32;;;;;;;5.30;4.80;;;;;;;4.64;52.63;94982.19;5045115;28;20212;-73
2022/01/29 01:26:01;;;;;;;4.63;3.70;;;;;;;4.43;53.75;94972.13;5027294;28;20172;-74
2022/01/29 01:28:26;;;;;;;4.67;4.20;;;;;;;4.92;52.76;94974.31;5027071;28;20183;-74
2022/01/29 01:30:52;;;;;;;5.20;3.77;;;;;;;4.60;53.67;94967.09;5038117;28;20487;-73
2022/01/29 01:33:17;;;;;;;4.20;3.80;;;;;;;5.11;52.02;94975.91;5027151;28;20187;-74
2022/01/29 01:35:48;;;;;;;7.07;4.20;;;;;;;4.89;52.57;94972.84;5044683;28;20207;-73
2022/01/29 01:38:19;;;;;;;6.00;5.40;;;;;;;5.10;52.06;94974.28;5045149;28;20211;-73
2022/01/29 01:40:49;;;;;;;8.90;5.90;;;;;;;4.99;52.30;94974.53;5035795;28;20438;-73
2022/01/29 01:43:15;;;;;;;5.87;4.97;;;;;;;4.69;53.25;94969.63;5044487;28;20422;-73
2022/01/29 01:45:40;;;;;;;4.80;4.00;;;;;;;4.55;53.65;94977.09;5044454;28;20437;-74
2022/01/29 01:48:06;;;;;;;8.20;6.03;;;;;;;4.70;53.79;94978.19;5034430;28;20192;-73
2022/01/29 01:50:34;;;;;;;4.80;4.40;;;;;;;5.04;52.72;94967.91;5042984;28;20205;-73
2022/01/29 01:52:59;;;;;;;4.87;4.37;;;;;;;5.13;52.51;94971.38;5044791;28;20452;-73
2022/01/29 01:55:25;;;;;;;5.47;4.97;;;;;;;4.78;53.57;94980.88;5015879;28;20456;-74
2022/01/29 01:57:52;;;;;;;6.50;4.70;;;;;;;4.91;53.12;94977.06;4997620;28;20184;-73
2022/01/29 02:00:18;;;;;;;5.23;4.80;;;;;;;4.74;54.10;94971.75;5024024;28;20431;-72
2022/01/29 02:02:44;;;;;;;4.60;4.10;;;;;;;5.09;53.02;94972.66;5006900;28;20974;-73
2022/01/29 02:05:09;;;;;;;3.57;3.27;;;;;;;4.50;54.08;94965.41;5024638;28;20496;-73
2022/01/29 02:07:36;;;;;;;5.07;4.57;;;;;;;4.89;53.19;94972.03;5008569;28;20192;-74
2022/01/29 02:10:07;;;;;;;4.13;3.83;;;;;;;4.76;53.78;94977.63;5005126;28;20209;-73
2022/01/29 02:12:43;;;;;;;3.53;3.23;;;;;;;4.80;54.20;94981.53;5005179;28;20527;-73
2022/01/29 02:15:11;;;;;;;2.90;2.70;;;;;;;4.42;54.89;94974.88;5004991;28;20540;-73
2022/01/29 02:17:36;;;;;;;3.23;2.87;;;;;;;4.35;54.95;94973.84;5040176;28;20429;-73
2022/01/29 02:20:04;;;;;;;5.87;5.10;;;;;;;4.56;54.97;94973.56;5025444;28;20441;-73
2022/01/29 02:22:29;;;;;;;5.70;5.20;;;;;;;4.64;54.41;94981.38;5028315;28;20173;-73
2022/01/29 02:24:54;;;;;;;7.10;6.30;;;;;;;4.88;53.27;94988.56;5030331;28;20478;-73
2022/01/29 02:27:20;;;;;;;5.60;5.10;;;;;;;4.82;53.69;94984.78;5047731;28;20223;-73
2022/01/29 02:29:48;;;;;;;7.10;4.70;;;;;;;4.95;52.95;94986.16;5031240;28;20505;-73
2022/01/29 02:32:14;;;;;;;6.07;5.47;;;;;;;4.97;53.17;94987.66;5027728;28;20176;-74
2022/01/29 02:34:40;;;;;;;6.20;5.60;;;;;;;5.09;53.23;94988.22;5034682;28;20508;-74
2022/01/29 02:37:06;;;;;;;5.40;4.90;;;;;;;4.94;53.43;94990.53;5025362;28;20200;-72
2022/01/29 02:39:31;;;;;;;6.10;5.20;;;;;;;5.15;53.22;94985.00;5010024;28;20442;-72
2022/01/29 02:41:57;;;;;;;6.20;5.60;;;;;;;5.26;52.36;94982.16;5027851;28;20179;-72
2022/01/29 02:44:23;;;;;;;7.23;5.80;;;;;;;4.92;53.58;94994.25;5039180;28;20743;-73
2022/01/29 02:46:54;;;;;;;6.80;6.20;;;;;;;5.22;52.77;94991.22;5047465;28;20417;-73
2022/01/29 02:49:25;;;;;;;7.63;5.77;;;;;;;5.13;53.07;94994.72;5029528;28;20211;-74
2022/01/29 02:51:57;;;;;;;9.30;5.70;;;;;;;5.20;52.70;94994.94;5039775;28;20810;-72
2022/01/29 02:54:25;;;;;;;6.27;5.00;;;;;;;4.81;53.84;94996.09;5046767;28;20425;-73
2022/01/29 02:56:51;;;;;;;5.83;5.33;;;;;;;5.12;52.86;94989.69;5046799;28;20782;-75
2022/01/29 02:59:17;;;;;;;5.33;4.77;;;;;;;5.02;53.27;94994.97;5029055;28;20434;-73
2022/01/29 03:01:43;;;;;;;5.93;5.33;;;;;;;5.12;52.95;94990.50;5034269;28;20782;-73
2022/01/29 03:04:09;;;;;;;5.57;4.90;;;;;;;4.68;54.30;94987.91;5009270;28;20180;-72
2022/01/29 03:06:35;;;;;;;6.87;4.60;;;;;;;5.03;52.82;94999.22;5026876;28;20420;-72
2022/01/29 03:09:01;;;;;;;10.23;5.53;;;;;;;4.82;53.50;95005.53;5027117;28;20470;-73
2022/01/29 03:11:27;;;;;;;4.67;4.20;;;;;;;4.72;53.37;95006.56;5008227;28;20436;-73
2022/01/29 03:13:53;;;;;;;7.40;5.67;;;;;;;4.94;53.18;95002.69;5042290;28;20419;-74
2022/01/29 03:16:19;;;;;;;5.63;4.80;;;;;;;4.96;53.51;95005.97;5026846;28;20224;-74
2022/01/29 03:18:45;;;;;;;6.87;5.83;;;;;;;4.92;53.04;95004.63;5021814;28;20448;-73
2022/01/29 03:21:10;;;;;;;3.13;2.93;;;;;;;4.56;54.04;94999.47;5036754;28;20473;-72
2022/01/29 03:23:36;;;;;;;6.97;5.73;;;;;;;4.80;53.27;94997.09;5024904;28;20318;-74
2022/01/29 03:26:01;;;;;;;6.67;5.10;;;;;;;4.71;53.37;95000.56;5025409;28;20248;-74
2022/01/29 03:28:27;;;;;;;3.37;3.07;;;;;;;4.38;53.47;94989.91;5029146;28;20176;-73
2022/01/29 03:30:55;;;;;;;3.63;3.30;;;;;;;4.28;53.47;94989.16;5046334;28;20197;-75
2022/01/29 03:33:20;;;;;;;4.80;4.20;;;;;;;4.67;52.42;94989.69;5046482;28;20425;-73
2022/01/29 03:35:46;;;;;;;5.27;4.87;;;;;;;4.31;52.92;94991.47;5016405;28;20467;-73
2022/01/29 03:38:11;;;;;;;5.50;4.70;;;;;;;4.50;52.59;94993.91;5027736;28;20192;-73
2022/01/29 03:40:37;;;;;;;7.17;4.90;;;;;;;4.59;52.30;94996.56;5046304;28;20210;-73
2022/01/29 03:43:07;;;;;;;4.63;3.90;;;;;;;4.57;51.99;94993.31;5028283;28;20192;-72
2022/01/29 03:45:32;;;;;;;4.10;3.53;;;;;;;4.66;52.01;94995.81;5037012;28;20181;-73
2022/01/29 03:47:58;;;;;;;4.50;3.77;;;;;;;5.13;50.64;94992.13;5035766;28;20441;-74
2022/01/29 03:50:23;;;;;;;5.03;4.53;;;;;;;5.03;51.30;95004.41;5045814;28;20183;-74
2022/01/29 03:52:49;;;;;;;4.97;3.50;;;;;;;4.69;52.31;94989.53;5045915;28;20187;-72
2022/01/29 03:55:14;;;;;;;4.03;3.63;;;;;;;4.38;53.31;94986.50;5040284;28;20235;-73
2022/01/29 03:57:40;;;;;;;4.27;3.70;;;;;;;4.63;52.64;95000.47;5042642;28;20187;-74
2022/01/29 04:00:06;;;;;;;4.70;4.40;;;;;;;4.62;52.28;94991.91;5045743;28;20179;-74
2022/01/29 04:02:32;;;;;;;4.40;4.00;;;;;;;4.67;52.07;94981.91;5009015;28;20207;-73
2022/01/29 04:04:57;;;;;;;5.83;5.33;;;;;;;4.77;52.59;94987.00;5028857;28;20426;-74
2022/01/29 04:07:23;;;;;;;6.17;4.63;;;;;;;4.93;52.32;94985.50;5045805;28;20175;-74
2022/01/29 04:09:50;;;;;;;3.07;2.77;;;;;;;5.00;51.54;94991.72;5027855;28;20199;-73
2022/01/29 04:12:16;;;;;;;4.83;4.43;;;;;;;4.76;52.21;94989.75;5045866;28;20190;-73
2022/01/29 04:14:42;;;;;;;4.63;4.23;;;;;;;4.76;52.35;94985.41;5033442;28;20442;-73
2022/01/29 04:17:08;;;;;;;4.27;3.87;;;;;;;4.67;52.18;94978.50;5045812;28;20219;-73
2022/01/29 04:19:34;;;;;;;5.60;5.07;;;;;;;5.07;51.51;94979.78;5045551;28;20506;-73
2022/01/29 04:22:01;;;;;;;3.93;3.70;;;;;;;4.60;53.02;94974.88;5025782;28;20513;-73
2022/01/29 04:24:26;;;;;;;4.30;2.93;;;;;;;4.49;52.95;94979.31;5022528;28;20437;-73
2022/01/29 04:26:52;;;;;;;4.27;3.97;;;;;;;4.63;52.33;94990.13;5045263;28;20465;-73
2022/01/29 04:29:18;;;;;;;4.03;3.37;;;;;;;4.84;51.95;94984.66;5045587;28;20562;-73
2022/01/29 04:32:10;;;;;;;4.57;4.20;;;;;;;4.58;52.28;94979.41;5025210;28;20192;-74
2022/01/29 04:34:30;;;;;;;3.60;3.40;;;;;;;4.71;51.84;94992.00;5044571;28;20426;-73
2022/01/29 04:36:56;;;;;;;3.67;3.00;;;;;;;4.43;52.77;94992.06;5045429;28;20449;-74
2022/01/29 04:39:22;;;;;;;3.70;2.97;;;;;;;4.22;52.85;94987.16;5027271;28;20450;-72
2022/01/29 04:41:47;;;;;;;3.80;3.50;;;;;;;4.77;51.93;94987.00;5024072;28;20200;-72
2022/01/29 04:44:13;;;;;;;4.30;3.80;;;;;;;4.64;52.24;94992.56;5024963;28;20176;-72
2022/01/29 04:46:38;;;;;;;4.83;4.23;;;;;;;4.49;52.53;94987.09;5025106;28;20180;-74
2022/01/29 04:49:04;;;;;;;4.70;4.30;;;;;;;4.73;51.97;94996.06;5025007;28;20207;-72
2022/01/29 04:51:29;;;;;;;4.27;3.97;;;;;;;4.43;52.49;94995.47;5037460;28;20195;-73
2022/01/29 04:53:55;;;;;;;3.63;2.97;;;;;;;4.57;52.27;94995.91;5026910;28;20247;-74
2022/01/29 04:56:20;;;;;;;4.77;3.93;;;;;;;4.47;52.64;94989.00;5044781;28;20298;-73
2022/01/29 04:58:46;;;;;;;4.43;4.13;;;;;;;4.32;53.40;94995.66;5035873;28;20332;-73
2022/01/29 05:01:11;;;;;;;4.53;3.87;;;;;;;4.48;52.65;94998.44;5009285;28;20715;-73
2022/01/29 05:03:37;;;;;;;4.00;3.67;;;;;;;4.27;53.44;95008.28;5025168;28;20192;-73
2022/01/29 05:06:09;;;;;;;5.20;4.70;;;;;;;4.65;52.64;95006.34;5025010;28;20176;-73
2022/01/29 05:08:35;;;;;;;4.80;3.70;;;;;;;4.49;53.10;95010.41;5019371;28;20188;-73
2022/01/29 05:11:01;;;;;;;5.43;4.13;;;;;;;4.73;52.36;95011.59;5003408;28;20415;-73
2022/01/29 05:13:29;;;;;;;4.10;3.70;;;;;;;4.57;53.44;95014.03;4986834;28;20494;-74
2022/01/29 05:16:40;;;;;;;4.23;4.03;;;;;;;4.11;54.33;94999.34;5005159;28;20201;-71
2022/01/29 05:27:04;;;;;;;5.60;5.10;;;;;;;4.62;54.05;95004.06;5017279;28;20507;-73
2022/01/29 05:29:33;;;;;;;4.67;3.97;;;;;;;4.19;55.04;94998.63;5012132;28;20427;-73
2022/01/29 05:32:04;;;;;;;4.80;4.37;;;;;;;4.27;55.56;95005.69;5024849;28;20517;-73
2022/01/29 05:34:30;;;;;;;5.93;5.10;;;;;;;4.30;55.06;95005.38;5024968;28;20403;-73
2022/01/29 05:36:55;;;;;;;5.37;4.93;;;;;;;4.19;55.71;95011.59;5031989;28;20434;-73
2022/01/29 05:39:24;;;;;;;6.60;4.90;;;;;;;4.13;56.04;95013.94;5044441;28;20175;-72
2022/01/29 05:41:50;;;;;;;5.17;4.30;;;;;;;4.26;55.21;95017.00;5044262;28;20578;-73
2022/01/29 05:44:16;;;;;;;6.10;5.50;;;;;;;4.27;55.49;95013.44;5033941;28;20428;-74
2022/01/29 05:46:41;;;;;;;7.33;4.83;;;;;;;4.15;56.26;95028.34;5024930;28;20561;-73
2022/01/29 05:49:07;;;;;;;6.03;3.90;;;;;;;3.95;56.09;95032.84;5019737;28;20188;-73
2022/01/29 05:51:32;;;;;;;5.03;4.63;;;;;;;3.96;56.81;95037.03;5003914;28;20204;-73
2022/01/29 05:53:58;;;;;;;5.00;4.50;;;;;;;3.69;57.44;95043.84;5004393;28;20189;-74
2022/01/29 05:56:25;;;;;;;9.27;3.30;;;;;;;3.91;57.42;95047.84;5008412;28;20203;-73
2022/01/29 05:58:51;;;;;;;5.47;4.97;;;;;;;4.29;56.09;95050.38;5008722;28;20481;-74
2022/01/29 06:01:17;;;;;;;7.53;6.43;;;;;;;4.49;55.75;95059.63;5017588;28;20415;-73
2022/01/29 06:03:42;;;;;;;4.93;4.50;;;;;;;4.09;56.43;95049.66;5031616;28;20478;-73
2022/01/29 06:06:09;;;;;;;8.40;5.97;;;;;;;4.23;56.62;95067.31;5047992;28;20180;-73
2022/01/29 06:08:34;;;;;;;6.63;5.57;;;;;;;4.39;56.22;95058.91;5028087;28;20196;-72
2022/01/29 06:11:00;;;;;;;5.83;5.20;;;;;;;4.24;56.33;95057.75;5027919;28;20426;-73
2022/01/29 06:13:26;;;;;;;6.10;5.60;;;;;;;4.60;55.59;95068.19;5022627;28;20196;-73
2022/01/29 06:15:53;;;;;;;3.53;3.30;;;;;;;4.43;56.24;95068.00;5010357;28;20206;-73
2022/01/29 06:18:22;;;;;;;7.43;6.30;;;;;;;4.54;55.15;95074.75;5027965;28;20287;-73
2022/01/29 06:21:03;;;;;;;7.07;6.37;;;;;;;4.96;54.11;95073.38;5028226;28;20454;-73
2022/01/29 06:23:30;;;;;;;8.13;6.13;;;;;;;4.95;54.47;95071.75;5037337;28;20446;-73
2022/01/29 06:26:00;;;;;;;7.13;5.43;;;;;;;4.99;54.28;95075.66;5047604;28;20414;-74
2022/01/29 06:28:26;;;;;;;6.67;5.93;;;;;;;4.43;55.48;95073.19;5031302;28;20957;-74
2022/01/29 06:30:51;;;;;;;6.70;5.63;;;;;;;5.14;53.58;95066.41;5025314;28;20418;-73
2022/01/29 06:33:17;;;;;;;7.80;7.00;;;;;;;4.83;54.37;95068.56;5037219;28;20196;-73
2022/01/29 06:35:44;;;;;;;7.43;6.70;;;;;;;4.97;53.91;95064.63;5016485;28;20208;-73
2022/01/29 06:38:12;;;;;;;5.87;5.23;;;;;;;4.69;54.22;95062.94;5008238;28;20188;-73
2022/01/29 06:40:38;;;;;;;7.10;5.67;;;;;;;4.49;55.11;95066.59;5003804;28;20438;-73
2022/01/29 06:43:04;;;;;;;6.47;5.90;;;;;;;4.92;53.96;95072.84;5005117;28;20455;-73
2022/01/29 06:45:34;;;;;;;6.80;6.30;;;;;;;5.10;53.74;95075.44;5007834;28;20499;-73
2022/01/29 06:48:00;;;;;;;7.70;6.47;;;;;;;5.34;52.69;95080.00;5025074;28;20922;-73
2022/01/29 06:50:26;;;;;;;7.07;6.23;;;;;;;5.28;53.54;95085.81;5030953;28;20480;-72
2022/01/29 06:52:52;;;;;;;6.60;5.90;;;;;;;5.08;53.31;95088.56;5023724;28;20450;-73
2022/01/29 06:58:26;;;;;;;6.90;5.53;;;;;;;5.29;53.13;95095.19;4979158;28;20477;-72
2022/01/29 07:01:32;;;;;;;3.87;3.57;;;;;;;4.82;54.71;95096.28;5025536;28;20507;-72
2022/01/29 07:03:58;;;;;;;6.40;5.80;;;;;;;4.96;54.24;95100.13;5005417;28;20205;-73
2022/01/29 07:06:24;;;;;;;2.93;2.40;;;;;;;4.74;54.30;95100.56;5021682;28;20430;-73
2022/01/29 07:08:49;;;;;;;6.77;6.17;;;;;;;5.02;54.10;95106.50;5035601;28;20191;-73
2022/01/29 07:11:19;;;;;;;5.60;5.20;;;;;;;4.69;54.61;95104.41;5018868;28;20188;-73
2022/01/29 07:13:45;;;;;;;6.73;5.70;;;;;;;5.03;53.62;95108.13;5045259;28;20456;-73
2022/01/29 07:16:11;;;;;;;5.60;5.13;;;;;;;4.62;55.12;95112.91;5039453;28;20470;-73
2022/01/29 07:18:36;;;;;;;9.40;6.27;;;;;;;5.10;54.45;95111.75;5010465;28;20427;-73
2022/01/29 07:21:02;;;;;;;6.23;5.33;;;;;;;4.67;55.37;95115.88;5022479;28;20187;-73
2022/01/29 07:23:28;;;;;;;8.10;6.23;;;;;;;4.74;54.91;95122.09;5022225;28;20247;-73
2022/01/29 07:25:53;;;;;;;8.07;5.77;;;;;;;5.02;54.30;95115.06;5028259;28;20431;-73
2022/01/29 07:28:22;;;;;;;9.30;6.80;;;;;;;4.70;56.12;95120.75;5005277;28;20215;-72
2022/01/29 07:30:47;;;;;;;3.80;3.50;;;;;;;4.62;55.24;95118.09;5025407;28;20211;-73
2022/01/29 07:33:13;;;;;;;5.87;5.37;;;;;;;4.53;55.80;95118.97;5029858;28;20493;-73
2022/01/29 07:35:38;;;;;;;9.37;5.90;;;;;;;4.60;55.41;95120.00;5019620;28;20220;-72
2022/01/29 07:38:04;;;;;;;31.67;9.23;;;;;;;4.68;55.57;95118.31;5038448;28;20214;-73
2022/01/29 07:40:29;;;;;;;7.47;6.07;;;;;;;5.60;53.33;95133.72;5024873;28;20199;-73
2022/01/29 07:42:54;;;;;;;14.00;7.43;;;;;;;5.67;52.88;95129.53;5027455;28;20271;-73
2022/01/29 07:45:20;;;;;;;8.50;6.80;;;;;;;5.13;54.06;95131.41;5025310;28;20283;-73
2022/01/29 07:47:46;;;;;;;7.30;6.53;;;;;;;5.18;53.71;95140.38;5034214;28;20592;-73
2022/01/29 07:50:11;;;;;;;18.80;8.77;;;;;;;5.34;53.86;95131.09;5032556;28;20203;-72
2022/01/29 07:52:36;;;;;;;7.93;7.13;;;;;;;5.50;53.76;95133.78;5024286;28;20184;-72
2022/01/29 07:55:04;;;;;;;13.03;7.13;;;;;;;5.47;53.72;95128.94;5026538;28;20236;-73
2022/01/29 07:57:31;;;;;;;9.07;6.90;;;;;;;5.50;53.17;95144.19;5004691;28;20184;-73
2022/01/29 07:59:56;;;;;;;6.00;5.13;;;;;;;4.79;55.38;95145.81;5024683;28;20439;-72
2022/01/29 08:02:22;;;;;;;15.50;6.63;;;;;;;5.32;53.79;95138.22;5024949;28;20478;-73
2022/01/29 08:04:47;;;;;;;9.17;6.27;;;;;;;5.15;54.45;95142.44;5026719;28;20192;-72
2022/01/29 08:07:13;;;;;;;5.00;4.60;;;;;;;4.74;55.36;95148.03;5026109;28;20236;-73
2022/01/29 08:09:38;;;;;;;19.33;7.77;;;;;;;5.04;54.47;95157.25;5025397;28;20192;-73
2022/01/29 08:12:04;;;;;;;7.60;6.30;;;;;;;5.45;53.45;95149.03;5004342;28;20200;-73
2022/01/29 08:14:30;;;;;;;7.70;6.27;;;;;;;5.22;54.16;95141.69;5025062;28;20199;-73
2022/01/29 08:16:55;;;;;;;7.93;7.13;;;;;;;5.47;53.31;95142.72;5021614;28;20247;-72
2022/01/29 08:19:20;;;;;;;9.77;6.90;;;;;;;5.10;54.51;95150.66;5025321;28;20559;-74
2022/01/29 08:21:46;;;;;;;7.50;5.10;;;;;;;5.23;53.54;95147.69;5022952;28;20195;-73
2022/01/29 08:24:11;;;;;;;7.63;5.30;;;;;;;5.26;54.15;95161.19;5023786;28;20246;-73
2022/01/29 08:26:37;;;;;;;10.53;6.40;;;;;;;4.83;55.19;95154.94;5023546;28;20224;-72
2022/01/29 08:29:02;;;;;;;9.80;6.40;;;;;;;5.21;54.54;95160.00;5004483;28;20196;-73
2022/01/29 08:31:28;;;;;;;7.50;6.80;;;;;;;5.34;53.75;95159.63;5024857;28;20183;-74
2022/01/29 08:33:53;;;;;;;16.63;7.83;;;;;;;5.43;53.66;95153.56;5024680;28;20223;-74
2022/01/29 08:36:19;;;;;;;9.80;6.10;;;;;;;5.45;53.65;95159.41;5024851;28;20663;-73
2022/01/29 08:38:44;;;;;;;7.27;5.90;;;;;;;5.89;52.89;95169.78;5024119;28;20192;-73
2022/01/29 08:41:10;;;;;;;6.30;5.70;;;;;;;5.04;54.81;95157.25;5024845;28;20672;-73
2022/01/29 08:43:35;;;;;;;9.00;7.10;;;;;;;5.71;53.54;95156.84;5006967;28;20214;-73
2022/01/29 08:46:01;;;;;;;6.43;5.93;;;;;;;5.20;54.67;95158.38;5024923;28;20184;-74
2022/01/29 08:48:26;;;;;;;9.90;7.37;;;;;;;6.41;52.15;95159.41;5028500;28;20249;-74
2022/01/29 08:50:52;;;;;;;9.67;7.80;;;;;;;6.23;52.95;95172.47;5027047;28;20187;-73
2022/01/29 08:53:19;;;;;;;4.23;3.93;;;;;;;5.48;53.91;95166.88;5029780;28;20575;-73
2022/01/29 08:55:45;;;;;;;7.37;6.67;;;;;;;6.35;52.62;95170.41;5022075;28;20235;-73
2022/01/29 08:58:12;;;;;;;6.10;5.30;;;;;;;5.99;52.61;95165.31;5030839;28;20444;-74
2022/01/29 09:00:40;;;;;;;8.03;6.20;;;;;;;6.20;52.43;95171.94;5017754;28;20521;-73
2022/01/29 09:03:06;;;;;;;11.60;6.50;;;;;;;6.38;51.73;95172.69;4999597;28;20415;-73
2022/01/29 09:05:34;;;;;;;9.10;7.33;;;;;;;6.56;52.16;95177.81;5020901;28;20436;-73
2022/01/29 09:08:00;;;;;;;30.13;10.50;;;;;;;6.33;51.75;95172.34;5006395;28;20190;-74
2022/01/29 09:10:27;;;;;;;8.37;5.60;;;;;;;5.50;54.28;95177.91;5027530;28;20427;-73
2022/01/29 09:12:52;;;;;;;9.17;5.30;;;;;;;4.85;55.55;95170.34;5025309;28;20506;-73
2022/01/29 09:15:18;;;;;;;7.90;7.13;;;;;;;5.58;54.42;95185.78;5022214;28;20497;-73
2022/01/29 09:17:43;;;;;;;9.20;6.47;;;;;;;5.41;53.99;95177.06;4995539;28;20664;-73
2022/01/29 09:20:10;;;;;;;8.03;6.00;;;;;;;5.07;55.11;95179.50;5020656;28;20196;-73
2022/01/29 09:22:37;;;;;;;9.13;7.00;;;;;;;5.28;54.50;95177.41;5023614;28;20236;-73
2022/01/29 09:25:02;;;;;;;4.17;3.10;;;;;;;5.72;52.97;95175.84;5024070;28;20439;-73
2022/01/29 09:27:28;;;;;;;9.20;7.03;;;;;;;6.09;53.09;95186.03;5023793;28;20989;-73
2022/01/29 09:29:57;;;;;;;8.07;7.27;;;;;;;5.97;53.25;95171.66;5025052;28;20434;-73
2022/01/29 09:32:23;;;;;;;15.70;6.37;;;;;;;6.50;52.02;95182.81;5027232;28;20199;-73
2022/01/29 09:34:49;;;;;;;23.03;8.70;;;;;;;5.99;53.47;95180.09;5020917;28;20441;-73
2022/01/29 09:37:15;;;;;;;11.17;6.97;;;;;;;5.55;54.21;95173.09;5029277;28;20486;-72
2022/01/29 09:39:42;;;;;;;10.27;8.53;;;;;;;5.87;54.30;95169.13;5003907;28;20214;-74
2022/01/29 09:42:09;;;;;;;11.47;8.20;;;;;;;6.26;52.74;95176.56;5024572;28;20243;-73
2022/01/29 09:44:35;;;;;;;8.30;7.00;;;;;;;5.73;53.91;95156.69;5028073;28;20434;-73
2022/01/29 09:47:03;;;;;;;6.97;6.27;;;;;;;5.09;55.95;95174.97;5026968;28;20426;-73
2022/01/29 09:49:32;;;;;;;8.50;5.20;;;;;;;4.99;55.92;95156.88;5025240;28;21039;-73
2022/01/29 09:51:58;;;;;;;7.03;6.43;;;;;;;5.00;55.62;95168.06;5004825;28;20440;-72
2022/01/29 09:54:23;;;;;;;11.00;5.00;;;;;;;4.91;55.25;95171.53;5026376;28;20914;-72
2022/01/29 09:56:49;;;;;;;6.23;5.60;;;;;;;5.76;52.94;95164.19;5028990;28;20208;-72
2022/01/29 09:59:14;;;;;;;6.00;5.50;;;;;;;5.76;53.05;95179.75;5041754;28;20193;-72
2022/01/29 10:01:40;;;;;;;6.20;5.60;;;;;;;5.56;53.27;95166.97;5028591;28;20192;-72
2022/01/29 10:04:06;;;;;;;7.13;6.27;;;;;;;6.03;51.33;95169.28;5008740;28;20203;-73
2022/01/29 10:06:32;;;;;;;9.57;7.17;;;;;;;6.38;50.68;95171.91;5026672;28;20544;-72
2022/01/29 10:08:59;;;;;;;8.83;6.60;;;;;;;6.05;51.15;95169.94;5023356;28;20438;-73
2022/01/29 10:11:27;;;;;;;6.50;5.70;;;;;;;5.93;51.38;95168.50;5007988;28;20451;-72
2022/01/29 10:13:59;;;;;;;8.37;5.90;;;;;;;6.09;51.83;95173.03;5029666;28;20446;-73
2022/01/29 10:16:26;;;;;;;5.30;4.90;;;;;;;6.02;51.90;95165.03;5026882;28;20495;-72
2022/01/29 10:19:05;;;;;;;5.30;4.80;;;;;;;5.14;54.96;95167.56;5015931;28;20449;-73
2022/01/29 10:21:36;;;;;;;7.17;6.53;;;;;;;5.68;54.21;95175.31;5027886;28;20419;-73
2022/01/29 10:24:07;;;;;;;11.50;5.87;;;;;;;5.40;54.14;95169.41;5012591;28;20430;-72
2022/01/29 10:26:35;;;;;;;7.07;5.13;;;;;;;5.15;55.29;95181.34;5027148;28;20516;-73
2022/01/29 10:29:03;;;;;;;5.30;4.57;;;;;;;4.57;57.48;95166.94;5027899;28;20443;-72
2022/01/29 10:31:43;;;;;;;8.73;7.00;;;;;;;5.03;56.10;95172.97;5028091;28;20423;-73
2022/01/29 10:34:25;;;;;;;10.13;4.03;;;;;;;4.80;56.58;95169.97;5023982;28;20430;-72
2022/01/29 10:37:16;;;;;;;10.17;7.43;;;;;;;4.93;55.45;95157.44;5017034;28;20446;-73
2022/01/29 10:39:48;;;;;;;21.93;7.43;;;;;;;4.98;56.38;95181.19;5016165;28;20438;-73
2022/01/29 10:42:27;;;;;;;8.80;6.43;;;;;;;5.50;55.33;95172.72;5009287;28;20510;-73
2022/01/29 10:44:55;;;;;;;8.47;7.40;;;;;;;5.57;54.53;95171.16;5027783;28;20906;-73
2022/01/29 10:47:21;;;;;;;16.30;10.00;;;;;;;5.54;54.74;95174.09;5022032;28;20468;-72
2022/01/29 10:49:53;;;;;;;6.37;5.50;;;;;;;5.47;54.97;95176.44;5033321;28;20438;-72
2022/01/29 10:52:28;;;;;;;13.67;8.57;;;;;;;5.78;54.12;95177.81;5026781;28;20428;-72
2022/01/29 10:55:03;;;;;;;8.13;5.40;;;;;;;5.65;54.37;95178.22;5025298;28;20461;-73
2022/01/29 10:57:38;;;;;;;14.10;7.27;;;;;;;5.35;55.38;95179.41;5046851;28;20905;-73
2022/01/29 11:00:18;;;;;;;10.37;9.20;;;;;;;5.72;55.33;95183.63;5030500;28;20434;-73
2022/01/29 11:02:44;;;;;;;5.17;4.23;;;;;;;5.31;56.00;95180.69;5026171;28;20407;-73
2022/01/29 11:05:11;;;;;;;6.67;5.87;;;;;;;4.94;57.12;95171.25;5028429;28;20868;-72
2022/01/29 11:07:37;;;;;;;16.03;5.50;;;;;;;5.10;56.18;95186.97;5029659;28;20422;-72
2022/01/29 11:10:07;;;;;;;5.13;4.63;;;;;;;5.35;55.21;95163.84;5027038;28;20518;-72
2022/01/29 11:12:33;;;;;;;12.80;7.83;;;;;;;5.37;55.80;95175.72;5028839;28;20411;-73
2022/01/29 11:15:00;;;;;;;8.23;7.17;;;;;;;5.37;56.11;95159.31;5028569;28;20470;-73
2022/01/29 11:17:28;;;;;;;7.47;6.77;;;;;;;5.07;56.70;95159.56;5008763;28;20423;-73
2022/01/29 11:19:54;;;;;;;5.80;3.73;;;;;;;4.84;57.08;95146.19;5028050;28;20862;-72
2022/01/29 11:22:22;;;;;;;13.93;7.93;;;;;;;5.91;55.04;95162.66;5026567;28;20434;-73
2022/01/29 11:24:49;;;;;;;10.53;8.33;;;;;;;6.12;54.17;95164.13;5026767;28;20431;-73
2022/01/29 11:27:26;;;;;;;13.47;8.20;;;;;;;5.51;55.42;95158.81;5026536;28;20446;-73
2022/01/29 11:30:02;;;;;;;9.57;7.43;;;;;;;6.01;54.61;95168.63;5026847;28;20466;-73
2022/01/29 11:32:35;;;;;;;14.30;7.80;;;;;;;5.47;56.06;95154.88;5023437;28;20426;-73
2022/01/29 11:35:09;;;;;;;21.80;9.10;;;;;;;6.20;53.96;95159.78;5024735;28;20466;-73
2022/01/29 11:37:48;;;;;;;10.47;7.50;;;;;;;5.74;54.71;95150.53;5023997;28;20410;-73
2022/01/29 11:40:33;;;;;;;17.13;10.40;;;;;;;5.76;55.05;95153.78;5002825;28;20461;-73
2022/01/29 11:43:18;;;;;;;11.90;8.73;;;;;;;5.99;53.95;95160.13;5025847;28;20402;-73
2022/01/29 11:45:50;;;;;;;7.63;5.40;;;;;;;6.12;53.86;95158.91;5023840;28;20442;-73
2022/01/29 11:48:25;;;;;;;12.77;7.70;;;;;;;5.60;54.71;95154.50;5023472;28;20418;-72
2022/01/29 11:50:54;;;;;;;9.40;7.30;;;;;;;5.83;54.00;95149.63;5025868;28;20430;-74
2022/01/29 11:53:21;;;;;;;9.60;6.53;;;;;;;5.65;54.03;95158.28;5025792;28;20419;-73